sensor_id;sensor_type;location;lat;lon;timestamp;pressure;altitude;pressure_sealevel;temperature;humidity
69247;BME280;56358;56.328;43.992;2022-07-23T00:00:56;100315.91;;;18.28;73.83
69247;BME280;56358;56.328;43.992;2022-07-23T00:02:56;100329.44;;;18.36;74.06
69247;BME280;56358;56.328;43.992;2022-07-23T00:05:00;100320.13;;;18.30;74.06
69247;BME280;56358;56.328;43.992;2022-07-23T00:07:02;100325.41;;;18.23;73.98
69247;BME280;56358;56.328;43.992;2022-07-23T00:09:03;100290.88;;;18.01;74.23
69247;BME280;56358;56.328;43.992;2022-07-23T00:11:03;100335.06;;;18.26;74.37
69247;BME280;56358;56.328;43.992;2022-07-23T00:13:04;100339.63;;;18.25;74.23
69247;BME280;56358;56.328;43.992;2022-07-23T00:15:06;100261.72;;;17.78;74.73
69247;BME280;56358;56.328;43.992;2022-07-23T00:17:07;100316.78;;;18.12;74.50
69247;BME280;56358;56.328;43.992;2022-07-23T00:19:07;100326.97;;;18.18;75.07
69247;BME280;56358;56.328;43.992;2022-07-23T00:21:08;100331.34;;;18.19;74.73
69247;BME280;56358;56.328;43.992;2022-07-23T00:23:09;100332.53;;;18.16;75.15
69247;BME280;56358;56.328;43.992;2022-07-23T00:25:12;100326.44;;;18.14;75.25
69247;BME280;56358;56.328;43.992;2022-07-23T00:27:13;100327.63;;;18.12;75.44
69247;BME280;56358;56.328;43.992;2022-07-23T00:29:14;100343.09;;;18.11;75.36
69247;BME280;56358;56.328;43.992;2022-07-23T00:31:14;100328.81;;;18.09;74.97
69247;BME280;56358;56.328;43.992;2022-07-23T00:33:15;100138.88;;;16.97;75.05
69247;BME280;56358;56.328;43.992;2022-07-23T00:35:20;100341.38;;;18.10;75.26
69247;BME280;56358;56.328;43.992;2022-07-23T00:37:21;100263.13;;;17.66;75.74
69247;BME280;56358;56.328;43.992;2022-07-23T00:39:21;100234.16;;;17.50;75.47
69247;BME280;56358;56.328;43.992;2022-07-23T00:41:23;100322.91;;;17.97;75.67
69247;BME280;56358;56.328;43.992;2022-07-23T00:43:23;100330.38;;;18.03;75.95
69247;BME280;56358;56.328;43.992;2022-07-23T00:45:25;100253.13;;;17.58;75.23
69247;BME280;56358;56.328;43.992;2022-07-23T00:47:26;100321.88;;;18.06;75.54
69247;BME280;56358;56.328;43.992;2022-07-23T00:49:30;100301.03;;;17.90;75.58
69247;BME280;56358;56.328;43.992;2022-07-23T00:51:30;100314.59;;;17.99;75.93
69247;BME280;56358;56.328;43.992;2022-07-23T00:53:31;100288.31;;;17.83;75.68
69247;BME280;56358;56.328;43.992;2022-07-23T00:55:32;100329.34;;;18.04;75.55
69247;BME280;56358;56.328;43.992;2022-07-23T00:57:33;100236.88;;;17.50;75.52
69247;BME280;56358;56.328;43.992;2022-07-23T00:59:34;100258.00;;;17.63;75.66
69247;BME280;56358;56.328;43.992;2022-07-23T01:01:35;100310.53;;;17.95;75.76
69247;BME280;56358;56.328;43.992;2022-07-23T01:03:36;100327.31;;;17.98;75.86
69247;BME280;56358;56.328;43.992;2022-07-23T01:05:37;100331.72;;;17.99;75.79
69247;BME280;56358;56.328;43.992;2022-07-23T01:07:38;100306.63;;;17.81;75.71
69247;BME280;56358;56.328;43.992;2022-07-23T01:09:40;100335.47;;;17.98;75.86
69247;BME280;56358;56.328;43.992;2022-07-23T01:11:41;100307.81;;;17.78;76.24
69247;BME280;56358;56.328;43.992;2022-07-23T01:13:43;100334.78;;;17.96;76.16
69247;BME280;56358;56.328;43.992;2022-07-23T01:15:43;100327.69;;;17.95;75.90
69247;BME280;56358;56.328;43.992;2022-07-23T01:17:44;100248.53;;;17.50;76.08
69247;BME280;56358;56.328;43.992;2022-07-23T01:19:45;100271.41;;;17.56;76.03
69247;BME280;56358;56.328;43.992;2022-07-23T01:21:51;100313.75;;;17.82;76.60
69247;BME280;56358;56.328;43.992;2022-07-23T01:23:53;100335.28;;;18.00;76.78
69247;BME280;56358;56.328;43.992;2022-07-23T01:25:57;100314.75;;;17.89;76.73
69247;BME280;56358;56.328;43.992;2022-07-23T01:27:57;100334.94;;;18.03;77.00
69247;BME280;56358;56.328;43.992;2022-07-23T01:30:00;100336.81;;;18.02;77.04
69247;BME280;56358;56.328;43.992;2022-07-23T01:32:01;100256.31;;;17.53;76.76
69247;BME280;56358;56.328;43.992;2022-07-23T01:34:02;100342.56;;;18.07;76.74
69247;BME280;56358;56.328;43.992;2022-07-23T01:36:03;100366.81;;;18.09;77.01
69247;BME280;56358;56.328;43.992;2022-07-23T01:38:04;100326.50;;;17.98;76.82
69247;BME280;56358;56.328;43.992;2022-07-23T01:40:06;100322.41;;;18.02;76.54
69247;BME280;56358;56.328;43.992;2022-07-23T01:42:07;100344.25;;;18.17;76.55
69247;BME280;56358;56.328;43.992;2022-07-23T01:44:11;100323.75;;;18.06;76.66
69247;BME280;56358;56.328;43.992;2022-07-23T01:46:11;100309.00;;;18.00;76.52
69247;BME280;56358;56.328;43.992;2022-07-23T01:48:12;100345.94;;;18.26;76.17
69247;BME280;56358;56.328;43.992;2022-07-23T01:50:13;100344.75;;;18.29;76.38
69247;BME280;56358;56.328;43.992;2022-07-23T01:52:17;100311.03;;;18.06;76.34
69247;BME280;56358;56.328;43.992;2022-07-23T01:54:17;100345.91;;;18.34;76.65
69247;BME280;56358;56.328;43.992;2022-07-23T01:56:18;100252.59;;;17.79;76.13
69247;BME280;56358;56.328;43.992;2022-07-23T01:58:21;100275.63;;;18.00;75.62
69247;BME280;56358;56.328;43.992;2022-07-23T02:00:24;100340.78;;;18.48;75.76
69247;BME280;56358;56.328;43.992;2022-07-23T02:02:25;100341.75;;;18.55;75.71
69247;BME280;56358;56.328;43.992;2022-07-23T02:04:26;100344.97;;;18.58;75.42
69247;BME280;56358;56.328;43.992;2022-07-23T02:06:26;100344.63;;;18.62;75.53
69247;BME280;56358;56.328;43.992;2022-07-23T02:08:27;100340.53;;;18.66;75.71
69247;BME280;56358;56.328;43.992;2022-07-23T02:10:28;100270.13;;;18.24;74.94
69247;BME280;56358;56.328;43.992;2022-07-23T02:12:28;100348.81;;;18.72;74.84
69247;BME280;56358;56.328;43.992;2022-07-23T02:14:49;100357.78;;;18.81;74.43
69247;BME280;56358;56.328;43.992;2022-07-23T02:16:50;100350.78;;;18.87;74.59
69247;BME280;56358;56.328;43.992;2022-07-23T02:18:51;100353.84;;;18.92;74.26
69247;BME280;56358;56.328;43.992;2022-07-23T02:20:51;100355.69;;;19.00;73.77
69247;BME280;56358;56.328;43.992;2022-07-23T02:22:52;100325.84;;;18.91;73.86
69247;BME280;56358;56.328;43.992;2022-07-23T02:24:53;100359.69;;;19.12;73.30
69247;BME280;56358;56.328;43.992;2022-07-23T02:26:53;100354.94;;;19.14;73.28
69247;BME280;56358;56.328;43.992;2022-07-23T02:28:54;100358.81;;;19.20;73.00
69247;BME280;56358;56.328;43.992;2022-07-23T02:30:55;100351.16;;;19.15;72.80
69247;BME280;56358;56.328;43.992;2022-07-23T02:32:55;100282.63;;;18.73;72.82
69247;BME280;56358;56.328;43.992;2022-07-23T02:34:58;100345.69;;;19.23;72.88
69247;BME280;56358;56.328;43.992;2022-07-23T02:36:59;100352.63;;;19.26;72.92
69247;BME280;56358;56.328;43.992;2022-07-23T02:38:59;100344.66;;;19.24;72.78
69247;BME280;56358;56.328;43.992;2022-07-23T02:41:00;100327.59;;;19.16;73.24
69247;BME280;56358;56.328;43.992;2022-07-23T02:43:01;100343.47;;;19.27;73.23
69247;BME280;56358;56.328;43.992;2022-07-23T02:45:05;100344.44;;;19.34;72.80
69247;BME280;56358;56.328;43.992;2022-07-23T02:47:06;100353.56;;;19.41;73.02
69247;BME280;56358;56.328;43.992;2022-07-23T02:49:06;100356.41;;;19.48;72.80
69247;BME280;56358;56.328;43.992;2022-07-23T02:51:07;100343.31;;;19.52;72.95
69247;BME280;56358;56.328;43.992;2022-07-23T02:53:08;100341.91;;;19.56;73.13
69247;BME280;56358;56.328;43.992;2022-07-23T02:55:08;100345.09;;;19.59;72.76
69247;BME280;56358;56.328;43.992;2022-07-23T02:57:09;100360.38;;;19.60;73.06
69247;BME280;56358;56.328;43.992;2022-07-23T02:59:10;100205.03;;;18.79;73.02
69247;BME280;56358;56.328;43.992;2022-07-23T03:01:11;100352.34;;;19.67;73.14
69247;BME280;56358;56.328;43.992;2022-07-23T03:03:11;100292.97;;;19.33;73.59
69247;BME280;56358;56.328;43.992;2022-07-23T03:05:12;100365.69;;;19.77;73.77
69247;BME280;56358;56.328;43.992;2022-07-23T03:07:16;100338.81;;;19.82;73.81
69247;BME280;56358;56.328;43.992;2022-07-23T03:09:17;100343.72;;;19.87;73.65
69247;BME280;56358;56.328;43.992;2022-07-23T03:11:17;100338.63;;;19.84;73.38
69247;BME280;56358;56.328;43.992;2022-07-23T03:13:18;100345.53;;;19.95;72.90
69247;BME280;56358;56.328;43.992;2022-07-23T03:15:19;100340.91;;;19.95;72.39
69247;BME280;56358;56.328;43.992;2022-07-23T03:17:19;100343.56;;;19.80;72.19
69247;BME280;56358;56.328;43.992;2022-07-23T03:19:20;100347.38;;;19.94;72.49
69247;BME280;56358;56.328;43.992;2022-07-23T03:21:21;100350.28;;;19.92;71.97
69247;BME280;56358;56.328;43.992;2022-07-23T03:23:21;100345.41;;;19.88;72.10
69247;BME280;56358;56.328;43.992;2022-07-23T03:25:22;100368.53;;;19.84;72.19
69247;BME280;56358;56.328;43.992;2022-07-23T03:27:25;100342.69;;;19.88;72.58
69247;BME280;56358;56.328;43.992;2022-07-23T03:29:26;100270.81;;;19.44;72.58
69247;BME280;56358;56.328;43.992;2022-07-23T03:31:27;100337.91;;;19.90;72.80
69247;BME280;56358;56.328;43.992;2022-07-23T03:33:27;100344.13;;;19.99;72.72
69247;BME280;56358;56.328;43.992;2022-07-23T03:35:28;100341.13;;;20.08;71.94
69247;BME280;56358;56.328;43.992;2022-07-23T03:37:29;100314.84;;;20.01;71.88
69247;BME280;56358;56.328;43.992;2022-07-23T03:39:29;100340.00;;;20.18;71.91
69247;BME280;56358;56.328;43.992;2022-07-23T03:41:30;100325.91;;;20.14;71.61
69247;BME280;56358;56.328;43.992;2022-07-23T03:43:31;100326.69;;;20.23;71.17
69247;BME280;56358;56.328;43.992;2022-07-23T03:45:32;100267.66;;;19.93;71.31
69247;BME280;56358;56.328;43.992;2022-07-23T03:47:32;100329.50;;;20.45;70.73
69247;BME280;56358;56.328;43.992;2022-07-23T03:49:34;100339.47;;;20.52;70.52
69247;BME280;56358;56.328;43.992;2022-07-23T03:51:35;100349.41;;;20.60;69.97
69247;BME280;56358;56.328;43.992;2022-07-23T03:53:35;100336.72;;;20.67;69.79
69247;BME280;56358;56.328;43.992;2022-07-23T03:55:36;100305.09;;;20.51;69.58
69247;BME280;56358;56.328;43.992;2022-07-23T03:57:37;100341.78;;;20.85;69.20
69247;BME280;56358;56.328;43.992;2022-07-23T03:59:37;100260.97;;;20.41;69.13
69247;BME280;56358;56.328;43.992;2022-07-23T04:01:41;100340.44;;;20.96;69.32
69247;BME280;56358;56.328;43.992;2022-07-23T04:03:41;100309.22;;;20.77;69.21
69247;BME280;56358;56.328;43.992;2022-07-23T04:05:42;100336.78;;;21.04;69.08
69247;BME280;56358;56.328;43.992;2022-07-23T04:07:42;100321.38;;;20.96;68.14
69247;BME280;56358;56.328;43.992;2022-07-23T04:09:44;100332.44;;;21.09;68.01
69247;BME280;56358;56.328;43.992;2022-07-23T04:11:44;100351.94;;;21.28;67.37
69247;BME280;56358;56.328;43.992;2022-07-23T04:13:45;100356.63;;;21.34;67.15
69247;BME280;56358;56.328;43.992;2022-07-23T04:15:46;100349.75;;;21.38;67.45
69247;BME280;56358;56.328;43.992;2022-07-23T04:17:47;100350.00;;;21.43;67.07
69247;BME280;56358;56.328;43.992;2022-07-23T04:19:47;100356.56;;;21.49;66.94
69247;BME280;56358;56.328;43.992;2022-07-23T04:21:48;100363.50;;;21.52;66.38
69247;BME280;56358;56.328;43.992;2022-07-23T04:23:48;100353.09;;;21.55;66.37
69247;BME280;56358;56.328;43.992;2022-07-23T04:25:49;100350.66;;;21.67;65.94
69247;BME280;56358;56.328;43.992;2022-07-23T04:27:50;100351.38;;;21.76;65.36
69247;BME280;56358;56.328;43.992;2022-07-23T04:29:53;100351.44;;;21.83;65.20
69247;BME280;56358;56.328;43.992;2022-07-23T04:31:53;100347.88;;;21.82;64.81
69247;BME280;56358;56.328;43.992;2022-07-23T04:33:54;100338.84;;;21.82;65.12
69247;BME280;56358;56.328;43.992;2022-07-23T04:35:55;100353.19;;;21.90;64.94
69247;BME280;56358;56.328;43.992;2022-07-23T04:37:55;100347.78;;;21.97;65.08
69247;BME280;56358;56.328;43.992;2022-07-23T04:39:56;100331.63;;;21.96;64.71
69247;BME280;56358;56.328;43.992;2022-07-23T04:41:57;100336.06;;;22.03;64.37
69247;BME280;56358;56.328;43.992;2022-07-23T04:43:57;100340.56;;;22.18;64.13
69247;BME280;56358;56.328;43.992;2022-07-23T04:45:58;100319.34;;;22.13;64.04
69247;BME280;56358;56.328;43.992;2022-07-23T04:47:59;100342.78;;;22.29;63.83
69247;BME280;56358;56.328;43.992;2022-07-23T04:49:59;100345.63;;;22.42;63.74
69247;BME280;56358;56.328;43.992;2022-07-23T04:52:00;100353.44;;;22.52;63.15
69247;BME280;56358;56.328;43.992;2022-07-23T04:54:01;100330.88;;;22.43;62.77
69247;BME280;56358;56.328;43.992;2022-07-23T04:56:02;100346.31;;;22.58;62.28
69247;BME280;56358;56.328;43.992;2022-07-23T04:58:02;100348.69;;;22.74;61.88
69247;BME280;56358;56.328;43.992;2022-07-23T05:00:04;100347.28;;;22.79;61.98
69247;BME280;56358;56.328;43.992;2022-07-23T05:02:05;100349.38;;;22.83;61.69
69247;BME280;56358;56.328;43.992;2022-07-23T05:04:06;100352.09;;;22.83;61.89
69247;BME280;56358;56.328;43.992;2022-07-23T05:06:06;100356.09;;;22.81;61.86
69247;BME280;56358;56.328;43.992;2022-07-23T05:08:08;100347.09;;;22.87;61.92
69247;BME280;56358;56.328;43.992;2022-07-23T05:10:09;100347.53;;;22.97;61.65
69247;BME280;56358;56.328;43.992;2022-07-23T05:12:11;100346.50;;;23.05;61.58
69247;BME280;56358;56.328;43.992;2022-07-23T05:14:11;100356.03;;;23.16;61.51
69247;BME280;56358;56.328;43.992;2022-07-23T05:16:12;100294.72;;;22.83;61.21
69247;BME280;56358;56.328;43.992;2022-07-23T05:18:13;100346.41;;;23.33;61.03
69247;BME280;56358;56.328;43.992;2022-07-23T05:20:14;100352.13;;;23.45;60.86
69247;BME280;56358;56.328;43.992;2022-07-23T05:22:15;100365.81;;;23.52;60.38
69247;BME280;56358;56.328;43.992;2022-07-23T05:24:15;100340.56;;;23.43;60.51
69247;BME280;56358;56.328;43.992;2022-07-23T05:26:16;100345.19;;;23.49;60.33
69247;BME280;56358;56.328;43.992;2022-07-23T05:28:16;100318.22;;;23.39;60.29
69247;BME280;56358;56.328;43.992;2022-07-23T05:30:19;100327.28;;;23.47;60.32
69247;BME280;56358;56.328;43.992;2022-07-23T05:32:20;100346.06;;;23.63;60.63
69247;BME280;56358;56.328;43.992;2022-07-23T05:34:21;100341.63;;;23.69;60.56
69247;BME280;56358;56.328;43.992;2022-07-23T05:36:22;100334.69;;;23.66;60.44
69247;BME280;56358;56.328;43.992;2022-07-23T05:38:22;100344.38;;;23.82;60.13
69247;BME280;56358;56.328;43.992;2022-07-23T05:40:23;100341.84;;;23.87;60.19
69247;BME280;56358;56.328;43.992;2022-07-23T05:42:23;100336.19;;;23.96;59.75
69247;BME280;56358;56.328;43.992;2022-07-23T05:44:24;100358.91;;;23.96;59.63
69247;BME280;56358;56.328;43.992;2022-07-23T05:46:25;100341.66;;;23.96;59.82
69247;BME280;56358;56.328;43.992;2022-07-23T05:48:26;100282.03;;;23.64;59.31
69247;BME280;56358;56.328;43.992;2022-07-23T05:50:27;100343.56;;;24.08;59.32
69247;BME280;56358;56.328;43.992;2022-07-23T05:52:27;100317.63;;;24.04;59.42
69247;BME280;56358;56.328;43.992;2022-07-23T05:54:28;100341.84;;;24.21;59.42
69247;BME280;56358;56.328;43.992;2022-07-23T05:56:28;100354.28;;;24.30;59.05
69247;BME280;56358;56.328;43.992;2022-07-23T05:58:29;100343.09;;;24.38;58.89
69247;BME280;56358;56.328;43.992;2022-07-23T06:00:30;100306.03;;;24.22;58.46
69247;BME280;56358;56.328;43.992;2022-07-23T06:02:31;100316.72;;;24.37;58.31
69247;BME280;56358;56.328;43.992;2022-07-23T06:04:31;100340.75;;;24.49;58.37
69247;BME280;56358;56.328;43.992;2022-07-23T06:06:32;100322.41;;;24.49;57.58
69247;BME280;56358;56.328;43.992;2022-07-23T06:08:33;100335.41;;;24.67;57.58
69247;BME280;56358;56.328;43.992;2022-07-23T06:10:33;100344.50;;;24.68;57.74
69247;BME280;56358;56.328;43.992;2022-07-23T06:12:34;100325.72;;;24.58;57.51
69247;BME280;56358;56.328;43.992;2022-07-23T06:14:35;100334.97;;;24.77;57.54
69247;BME280;56358;56.328;43.992;2022-07-23T06:16:39;100334.28;;;24.88;57.57
69247;BME280;56358;56.328;43.992;2022-07-23T06:18:39;100330.69;;;24.95;57.10
69247;BME280;56358;56.328;43.992;2022-07-23T06:20:40;100320.78;;;24.93;56.86
69247;BME280;56358;56.328;43.992;2022-07-23T06:22:41;100335.09;;;25.02;56.85
69247;BME280;56358;56.328;43.992;2022-07-23T06:24:42;100333.34;;;25.08;56.90
69247;BME280;56358;56.328;43.992;2022-07-23T06:26:43;100328.44;;;25.17;56.77
69247;BME280;56358;56.328;43.992;2022-07-23T06:28:44;100324.84;;;25.23;57.06
69247;BME280;56358;56.328;43.992;2022-07-23T06:30:44;100334.47;;;25.32;56.88
69247;BME280;56358;56.328;43.992;2022-07-23T06:32:46;100323.50;;;25.39;56.56
69247;BME280;56358;56.328;43.992;2022-07-23T06:34:47;100329.13;;;25.51;56.69
69247;BME280;56358;56.328;43.992;2022-07-23T06:36:48;100327.03;;;25.46;56.97
69247;BME280;56358;56.328;43.992;2022-07-23T06:38:48;100317.22;;;25.57;56.57
69247;BME280;56358;56.328;43.992;2022-07-23T06:40:49;100264.47;;;25.23;56.17
69247;BME280;56358;56.328;43.992;2022-07-23T06:42:50;100321.56;;;25.71;56.28
69247;BME280;56358;56.328;43.992;2022-07-23T06:44:50;100278.72;;;25.38;56.33
69247;BME280;56358;56.328;43.992;2022-07-23T06:46:51;100300.63;;;25.45;55.98
69247;BME280;56358;56.328;43.992;2022-07-23T06:48:52;100326.81;;;25.73;55.82
69247;BME280;56358;56.328;43.992;2022-07-23T06:50:52;100332.72;;;25.76;55.10
69247;BME280;56358;56.328;43.992;2022-07-23T06:52:53;100325.72;;;25.81;54.75
69247;BME280;56358;56.328;43.992;2022-07-23T06:54:54;100331.66;;;25.77;55.10
69247;BME280;56358;56.328;43.992;2022-07-23T06:56:56;100329.50;;;25.80;55.24
69247;BME280;56358;56.328;43.992;2022-07-23T06:58:56;100327.41;;;25.82;55.07
69247;BME280;56358;56.328;43.992;2022-07-23T07:00:57;100334.56;;;25.83;55.08
69247;BME280;56358;56.328;43.992;2022-07-23T07:02:58;100328.69;;;25.79;55.28
69247;BME280;56358;56.328;43.992;2022-07-23T07:04:59;100323.38;;;25.84;55.40
69247;BME280;56358;56.328;43.992;2022-07-23T07:07:00;100328.50;;;25.99;54.70
69247;BME280;56358;56.328;43.992;2022-07-23T07:09:00;100313.28;;;26.03;54.50
69247;BME280;56358;56.328;43.992;2022-07-23T07:11:04;100263.94;;;25.90;53.66
69247;BME280;56358;56.328;43.992;2022-07-23T07:13:05;100325.78;;;26.43;53.65
69247;BME280;56358;56.328;43.992;2022-07-23T07:15:05;100287.66;;;26.28;53.67
69247;BME280;56358;56.328;43.992;2022-07-23T07:17:06;100328.66;;;26.67;53.94
69247;BME280;56358;56.328;43.992;2022-07-23T07:19:07;100276.75;;;26.40;53.43
69247;BME280;56358;56.328;43.992;2022-07-23T07:21:08;100326.88;;;26.79;52.71
69247;BME280;56358;56.328;43.992;2022-07-23T07:23:08;100261.63;;;26.49;52.43
69247;BME280;56358;56.328;43.992;2022-07-23T07:25:09;100313.69;;;27.00;51.93
69247;BME280;56358;56.328;43.992;2022-07-23T07:27:11;100331.16;;;27.05;51.27
69247;BME280;56358;56.328;43.992;2022-07-23T07:29:12;100320.47;;;26.97;51.99
69247;BME280;56358;56.328;43.992;2022-07-23T07:31:12;100278.44;;;26.78;52.12
69247;BME280;56358;56.328;43.992;2022-07-23T07:33:13;100330.25;;;27.12;52.07
69247;BME280;56358;56.328;43.992;2022-07-23T07:35:14;100335.25;;;27.15;51.54
69247;BME280;56358;56.328;43.992;2022-07-23T07:37:14;100296.94;;;27.01;51.72
69247;BME280;56358;56.328;43.992;2022-07-23T07:39:15;100328.97;;;27.26;50.94
69247;BME280;56358;56.328;43.992;2022-07-23T07:41:16;100310.16;;;27.23;51.02
69247;BME280;56358;56.328;43.992;2022-07-23T07:43:17;100318.28;;;27.18;51.09
69247;BME280;56358;56.328;43.992;2022-07-23T07:45:20;100324.69;;;27.30;51.10
69247;BME280;56358;56.328;43.992;2022-07-23T07:47:21;100316.88;;;27.27;51.06
69247;BME280;56358;56.328;43.992;2022-07-23T07:49:22;100315.91;;;27.21;50.74
69247;BME280;56358;56.328;43.992;2022-07-23T07:51:27;100324.91;;;27.29;50.88
69247;BME280;56358;56.328;43.992;2022-07-23T07:53:27;100308.88;;;27.25;50.93
69247;BME280;56358;56.328;43.992;2022-07-23T07:55:28;100319.13;;;27.49;51.13
69247;BME280;56358;56.328;43.992;2022-07-23T07:57:29;100325.13;;;27.57;50.72
69247;BME280;56358;56.328;43.992;2022-07-23T07:59:30;100325.75;;;27.59;50.53
69247;BME280;56358;56.328;43.992;2022-07-23T08:01:31;100312.09;;;27.53;50.11
69247;BME280;56358;56.328;43.992;2022-07-23T08:03:32;100335.31;;;27.57;50.58
69247;BME280;56358;56.328;43.992;2022-07-23T08:05:32;100310.66;;;27.50;50.73
69247;BME280;56358;56.328;43.992;2022-07-23T08:07:33;100324.44;;;27.74;50.19
69247;BME280;56358;56.328;43.992;2022-07-23T08:09:34;100267.06;;;27.47;50.24
69247;BME280;56358;56.328;43.992;2022-07-23T08:11:35;100326.50;;;27.79;49.62
69247;BME280;56358;56.328;43.992;2022-07-23T08:13:35;100330.94;;;27.80;49.96
69247;BME280;56358;56.328;43.992;2022-07-23T08:15:36;100320.47;;;27.70;49.24
69247;BME280;56358;56.328;43.992;2022-07-23T08:17:40;100322.28;;;27.76;49.23
69247;BME280;56358;56.328;43.992;2022-07-23T08:19:41;100326.63;;;27.84;48.71
69247;BME280;56358;56.328;43.992;2022-07-23T08:21:42;100325.31;;;27.86;47.65
69247;BME280;56358;56.328;43.992;2022-07-23T08:23:43;100315.22;;;27.80;48.34
69247;BME280;56358;56.328;43.992;2022-07-23T08:25:44;100252.94;;;27.55;48.71
69247;BME280;56358;56.328;43.992;2022-07-23T08:27:44;100307.59;;;28.06;48.11
69247;BME280;56358;56.328;43.992;2022-07-23T08:29:45;100288.91;;;27.96;47.33
69247;BME280;56358;56.328;43.992;2022-07-23T08:31:46;100269.16;;;28.11;47.36
69247;BME280;56358;56.328;43.992;2022-07-23T08:33:49;100284.47;;;28.19;46.32
69247;BME280;56358;56.328;43.992;2022-07-23T08:35:51;100311.78;;;28.44;46.11
69247;BME280;56358;56.328;43.992;2022-07-23T08:37:56;100294.75;;;28.35;46.18
69247;BME280;56358;56.328;43.992;2022-07-23T08:39:57;100247.72;;;28.13;45.91
69247;BME280;56358;56.328;43.992;2022-07-23T08:41:58;100302.19;;;28.47;46.06
69247;BME280;56358;56.328;43.992;2022-07-23T08:43:59;100297.94;;;28.56;45.79
69247;BME280;56358;56.328;43.992;2022-07-23T08:46:02;100295.91;;;28.63;45.03
69247;BME280;56358;56.328;43.992;2022-07-23T08:48:06;100298.19;;;28.54;43.92
69247;BME280;56358;56.328;43.992;2022-07-23T08:50:08;100317.25;;;28.68;44.65
69247;BME280;56358;56.328;43.992;2022-07-23T08:52:09;100257.94;;;28.53;43.78
69247;BME280;56358;56.328;43.992;2022-07-23T08:54:13;100302.19;;;28.87;44.14
69247;BME280;56358;56.328;43.992;2022-07-23T08:56:14;100310.78;;;29.03;43.44
69247;BME280;56358;56.328;43.992;2022-07-23T08:58:15;100303.25;;;28.98;42.80
69247;BME280;56358;56.328;43.992;2022-07-23T09:00:17;100311.50;;;28.98;43.15
69247;BME280;56358;56.328;43.992;2022-07-23T09:02:18;100304.78;;;29.06;42.75
69247;BME280;56358;56.328;43.992;2022-07-23T09:04:19;100306.38;;;29.19;42.99
69247;BME280;56358;56.328;43.992;2022-07-23T09:06:21;100303.00;;;29.29;42.67
69247;BME280;56358;56.328;43.992;2022-07-23T09:08:44;100304.09;;;29.28;40.82
69247;BME280;56358;56.328;43.992;2022-07-23T09:11:05;100291.91;;;29.40;39.66
69247;BME280;56358;56.328;43.992;2022-07-23T09:15:26;100221.06;;;29.00;39.90
69247;BME280;56358;56.328;43.992;2022-07-23T09:17:26;100282.69;;;29.52;40.09
69247;BME280;56358;56.328;43.992;2022-07-23T09:19:27;100285.28;;;29.58;39.79
69247;BME280;56358;56.328;43.992;2022-07-23T09:21:36;100272.81;;;29.56;39.79
69247;BME280;56358;56.328;43.992;2022-07-23T09:23:38;100266.38;;;29.50;38.93
69247;BME280;56358;56.328;43.992;2022-07-23T09:25:39;100278.25;;;29.51;38.75
69247;BME280;56358;56.328;43.992;2022-07-23T09:27:56;100277.66;;;29.66;38.20
69247;BME280;56358;56.328;43.992;2022-07-23T09:29:57;100262.84;;;29.72;38.20
69247;BME280;56358;56.328;43.992;2022-07-23T09:32:00;100284.28;;;29.99;37.84
69247;BME280;56358;56.328;43.992;2022-07-23T09:34:07;100281.00;;;30.02;37.70
69247;BME280;56358;56.328;43.992;2022-07-23T09:36:08;100287.69;;;30.06;38.10
69247;BME280;56358;56.328;43.992;2022-07-23T09:38:09;100269.28;;;30.12;38.00
69247;BME280;56358;56.328;43.992;2022-07-23T09:40:10;100265.50;;;30.40;37.84
69247;BME280;56358;56.328;43.992;2022-07-23T09:44:19;100272.72;;;30.63;32.30
69247;BME280;56358;56.328;43.992;2022-07-23T09:46:26;100265.41;;;30.52;34.53
69247;BME280;56358;56.328;43.992;2022-07-23T09:48:27;100158.97;;;29.71;36.63
69247;BME280;56358;56.328;43.992;2022-07-23T09:50:28;100276.78;;;30.16;36.92
69247;BME280;56358;56.328;43.992;2022-07-23T09:52:32;100272.88;;;30.12;37.27
69247;BME280;56358;56.328;43.992;2022-07-23T09:54:36;100263.78;;;29.95;37.08
69247;BME280;56358;56.328;43.992;2022-07-23T09:56:37;100273.72;;;29.79;37.84
69247;BME280;56358;56.328;43.992;2022-07-23T09:58:39;100259.25;;;29.71;38.91
69247;BME280;56358;56.328;43.992;2022-07-23T10:00:50;100260.34;;;29.70;39.28
69247;BME280;56358;56.328;43.992;2022-07-23T10:02:51;100260.41;;;29.92;39.55
69247;BME280;56358;56.328;43.992;2022-07-23T10:04:53;100271.41;;;30.26;37.95
69247;BME280;56358;56.328;43.992;2022-07-23T10:06:57;100253.03;;;30.37;37.48
69247;BME280;56358;56.328;43.992;2022-07-23T10:08:59;100264.28;;;31.02;36.04
69247;BME280;56358;56.328;43.992;2022-07-23T10:11:03;100274.25;;;31.58;34.75
69247;BME280;56358;56.328;43.992;2022-07-23T10:13:04;100271.84;;;31.67;35.06
69247;BME280;56358;56.328;43.992;2022-07-23T10:15:24;100279.31;;;31.66;34.67
69247;BME280;56358;56.328;43.992;2022-07-23T10:17:27;100273.66;;;31.56;34.31
69247;BME280;56358;56.328;43.992;2022-07-23T10:19:30;100209.28;;;31.06;35.07
69247;BME280;56358;56.328;43.992;2022-07-23T10:21:45;100276.31;;;31.40;35.34
69247;BME280;56358;56.328;43.992;2022-07-23T10:28:15;100271.16;;;31.87;33.96
69247;BME280;56358;56.328;43.992;2022-07-23T10:37:01;100242.56;;;33.80;30.60
69247;BME280;56358;56.328;43.992;2022-07-23T10:39:22;100245.25;;;34.16;30.08
69247;BME280;56358;56.328;43.992;2022-07-23T10:41:35;100262.34;;;34.65;29.07
69247;BME280;56358;56.328;43.992;2022-07-23T10:43:36;100252.91;;;34.55;29.44